Flint, Michigan
Current Conditions -  °F | °C
As of 8:53 AM on Sunday 25 Jan 2015 (Local Time) from KFNT Reporting Station
Overcast Overcast  
Wind Chill: -13°   Ceiling: 2200
Heat Index: -5°   Visibility: 10mi
Dew Point: -11°   Wind: 17mph
Humidity: 65%   Direction: 70°ENE
Pressure: 29.88"   Gusts: NA
Location:  43.01°N, 83.68°W
Report Text: KFNT 251353Z 07015KT 10SM OVC022 M05/M11 A2988 RMK AO2 SLP129 T10501106
Loading
Personal Weather Stations






























Interactive Weather Map New forecast layout! Learn more

10-Day Weather Forecast

Advertisements
Track Severe Weather on mobile